Time;durP1;ratioP1;P1;durP2;ratioP2;P2;SDS_P1;SDS_P2;PMS_P1;PMS_P2;Temp;Humidity;BMP_temperature;BMP_pressure;BME280_temperature;BME280_humidity;BME280_pressure;Samples;Min_cycle;Max_cycle;Signal;HPM_P1;HPM_P2
2022/03/19 00:00:58;;;;;;;553.70;200.50;;;;;;;;;;5056191;28;20287;-52
2022/03/19 00:03:26;;;;;;;334.43;104.40;;;;;;;;;;5056247;28;20319;-54
2022/03/19 00:05:53;;;;;;;231.27;64.90;;;;;;;;;;5056055;28;20225;-52
2022/03/19 00:08:20;;;;;;;158.53;49.57;;;;;;;;;;5039230;28;20227;-54
2022/03/19 00:10:48;;;;;;;185.37;54.47;;;;;;;;;;5039014;28;20200;-53
2022/03/19 00:13:15;;;;;;;174.60;51.30;;;;;;;;;;5056252;28;20593;-52
2022/03/19 00:15:42;;;;;;;128.90;42.10;;;;;;;;;;5056332;28;20197;-51
2022/03/19 00:18:09;;;;;;;92.47;36.80;;;;;;;;;;5055944;28;20288;-51
2022/03/19 00:20:37;;;;;;;88.40;38.67;;;;;;;;;;5055923;28;20234;-53
2022/03/19 00:23:05;;;;;;;111.30;43.37;;;;;;;;;;5022373;28;20227;-52
2022/03/19 00:25:33;;;;;;;106.07;41.37;;;;;;;;;;5038745;28;20583;-50
2022/03/19 00:28:00;;;;;;;106.77;42.23;;;;;;;;;;5067630;28;20281;-51
2022/03/19 00:30:27;;;;;;;96.37;38.77;;;;;;;;;;5058251;28;20659;-50
2022/03/19 00:32:54;;;;;;;93.93;40.33;;;;;;;;;;5041954;28;20215;-50
2022/03/19 00:35:21;;;;;;;95.00;37.33;;;;;;;;;;5075520;28;20641;-52
2022/03/19 00:37:53;;;;;;;103.83;44.83;;;;;;;;;;5075505;28;20234;-51
2022/03/19 00:40:24;;;;;;;119.23;48.17;;;;;;;;;;5075639;28;20203;-51
2022/03/19 00:42:51;;;;;;;120.27;49.30;;;;;;;;;;5075954;28;20207;-49
2022/03/19 00:45:19;;;;;;;121.90;49.37;;;;;;;;;;5075829;28;20541;-51
2022/03/19 00:47:46;;;;;;;118.10;49.17;;;;;;;;;;5075717;28;20206;-51
2022/03/19 00:50:13;;;;;;;170.60;59.77;;;;;;;;;;5075733;28;20223;-50
2022/03/19 00:52:40;;;;;;;230.37;69.83;;;;;;;;;;5057876;28;20231;-51
2022/03/19 00:55:09;;;;;;;199.53;68.03;;;;;;;;;;5075434;28;20223;-49
2022/03/19 00:57:40;;;;;;;201.13;67.60;;;;;;;;;;5058277;28;20272;-50
2022/03/19 01:00:11;;;;;;;206.57;65.53;;;;;;;;;;5084074;28;20218;-51
2022/03/19 01:02:40;;;;;;;961.93;425.50;;;;;;;;;;5095796;28;20595;-50
2022/03/19 01:05:09;;;;;;;719.83;273.33;;;;;;;;;;5095471;28;20226;-50
2022/03/19 01:07:42;;;;;;;128.33;55.90;;;;;;;;;;5095481;28;20215;-50
2022/03/19 01:10:12;;;;;;;123.10;53.23;;;;;;;;;;5096082;28;20230;-50
2022/03/19 01:12:39;;;;;;;123.90;49.33;;;;;;;;;;5095272;28;20199;-51
2022/03/19 01:15:09;;;;;;;127.00;50.27;;;;;;;;;;5090340;28;20316;-50
2022/03/19 01:17:37;;;;;;;121.27;49.67;;;;;;;;;;5054407;28;20627;-50
2022/03/19 01:20:05;;;;;;;141.57;57.37;;;;;;;;;;5053739;28;20235;-53
2022/03/19 01:22:33;;;;;;;185.97;65.47;;;;;;;;;;5054879;28;20239;-50
2022/03/19 01:25:04;;;;;;;260.87;94.73;;;;;;;;;;5054639;28;20232;-51
2022/03/19 01:27:32;;;;;;;225.10;81.33;;;;;;;;;;5053908;28;20204;-54
2022/03/19 01:29:59;;;;;;;194.73;65.97;;;;;;;;;;5054341;28;20287;-50
2022/03/19 01:32:27;;;;;;;212.83;67.17;;;;;;;;;;5054780;28;20271;-50
2022/03/19 01:34:54;;;;;;;140.67;53.53;;;;;;;;;;5054538;28;20709;-50
2022/03/19 01:37:22;;;;;;;305.03;86.73;;;;;;;;;;5054585;28;20216;-50
2022/03/19 01:39:53;;;;;;;257.90;74.80;;;;;;;;;;5054693;28;20721;-51
2022/03/19 01:42:29;;;;;;;267.33;82.30;;;;;;;;;;5055278;28;20208;-49
2022/03/19 01:44:57;;;;;;;228.60;74.53;;;;;;;;;;5054911;28;20226;-50
2022/03/19 01:47:29;;;;;;;351.63;98.87;;;;;;;;;;5054760;28;20211;-54
2022/03/19 01:49:57;;;;;;;220.70;66.97;;;;;;;;;;5038169;28;20223;-50
2022/03/19 01:52:25;;;;;;;370.53;86.17;;;;;;;;;;5054432;28;20226;-51
2022/03/19 01:54:54;;;;;;;453.07;101.63;;;;;;;;;;5054404;28;20556;-50
2022/03/19 01:57:24;;;;;;;234.03;67.17;;;;;;;;;;5054393;28;20247;-51
2022/03/19 01:59:52;;;;;;;145.50;46.97;;;;;;;;;;5054882;28;20282;-50
2022/03/19 02:02:19;;;;;;;155.53;45.50;;;;;;;;;;5054688;28;20204;-52
2022/03/19 02:04:47;;;;;;;1999.90;935.73;;;;;;;;;;5055079;28;20602;-49
2022/03/19 02:07:14;;;;;;;1425.50;553.50;;;;;;;;;;5054633;28;20586;-51
2022/03/19 02:09:42;;;;;;;673.87;213.57;;;;;;;;;;5054539;28;20211;-51
2022/03/19 02:12:10;;;;;;;146.70;58.17;;;;;;;;;;5054575;28;20215;-50
2022/03/19 02:14:39;;;;;;;145.40;50.60;;;;;;;;;;5054273;28;20248;-50
2022/03/19 02:17:07;;;;;;;151.10;48.83;;;;;;;;;;5054455;28;20235;-50
2022/03/19 02:19:48;;;;;;;109.93;42.23;;;;;;;;;;5054467;28;20639;-51
2022/03/19 02:22:16;;;;;;;246.33;66.33;;;;;;;;;;5054404;28;20215;-52
2022/03/19 02:27:30;;;;;;;1131.13;420.53;;;;;;;;;;5054352;28;20634;-52
2022/03/19 02:29:58;;;;;;;590.87;179.70;;;;;;;;;;5054389;28;20635;-50
2022/03/19 02:32:25;;;;;;;524.13;117.67;;;;;;;;;;5054315;28;20204;-51
2022/03/19 02:34:54;;;;;;;339.03;79.77;;;;;;;;;;5053948;28;20307;-51
2022/03/19 02:37:21;;;;;;;253.50;65.97;;;;;;;;;;5054301;28;20212;-52
2022/03/19 02:39:49;;;;;;;182.13;52.23;;;;;;;;;;5053966;28;20231;-52
2022/03/19 02:42:18;;;;;;;134.37;45.87;;;;;;;;;;5054281;28;20212;-51
2022/03/19 02:44:46;;;;;;;75.00;32.40;;;;;;;;;;5054537;28;20285;-51
2022/03/19 02:47:13;;;;;;;107.93;35.43;;;;;;;;;;5054241;28;20196;-52
2022/03/19 02:49:40;;;;;;;142.83;46.70;;;;;;;;;;5054140;28;20199;-51
2022/03/19 02:52:07;;;;;;;139.70;40.13;;;;;;;;;;5036501;28;20220;-51
2022/03/19 02:54:34;;;;;;;87.37;31.17;;;;;;;;;;5054570;28;20232;-53
2022/03/19 02:57:02;;;;;;;45.13;23.83;;;;;;;;;;5054819;28;20285;-51
2022/03/19 02:59:31;;;;;;;67.47;32.00;;;;;;;;;;5053740;28;20307;-51
2022/03/19 03:02:04;;;;;;;61.90;29.87;;;;;;;;;;5053834;28;20212;-50
2022/03/19 03:04:32;;;;;;;54.27;25.63;;;;;;;;;;5055806;28;20691;-53
2022/03/19 03:07:02;;;;;;;64.73;26.77;;;;;;;;;;5057414;28;20200;-51
2022/03/19 03:09:31;;;;;;;55.87;26.50;;;;;;;;;;5057277;28;20291;-52
2022/03/19 03:12:01;;;;;;;63.57;28.77;;;;;;;;;;5057929;28;20258;-52
2022/03/19 03:14:29;;;;;;;84.90;31.47;;;;;;;;;;5057202;28;20215;-51
2022/03/19 03:16:59;;;;;;;153.33;41.07;;;;;;;;;;5057503;28;20212;-52
2022/03/19 03:19:27;;;;;;;231.20;52.83;;;;;;;;;;5039959;28;20615;-51
2022/03/19 03:21:54;;;;;;;235.20;59.03;;;;;;;;;;5039838;28;20283;-53
2022/03/19 03:24:22;;;;;;;378.80;88.40;;;;;;;;;;5057315;28;20658;-51
2022/03/19 03:26:49;;;;;;;431.63;95.60;;;;;;;;;;5056990;28;20228;-51
2022/03/19 03:29:17;;;;;;;1445.60;467.87;;;;;;;;;;5056933;28;20291;-52
2022/03/19 03:31:44;;;;;;;1999.90;777.77;;;;;;;;;;5057371;28;20207;-51
2022/03/19 03:34:11;;;;;;;723.13;217.87;;;;;;;;;;5056778;28;20251;-51
2022/03/19 03:36:38;;;;;;;211.03;67.47;;;;;;;;;;5057031;28;20283;-55
2022/03/19 03:39:05;;;;;;;326.13;87.87;;;;;;;;;;5056990;28;20531;-51
2022/03/19 03:41:33;;;;;;;308.57;79.80;;;;;;;;;;5057087;28;20200;-51
2022/03/19 03:44:00;;;;;;;342.90;81.40;;;;;;;;;;5056893;28;20215;-50
2022/03/19 03:46:27;;;;;;;308.63;72.80;;;;;;;;;;5056887;28;20204;-52
2022/03/19 03:48:55;;;;;;;176.93;52.77;;;;;;;;;;5056548;28;20662;-51
2022/03/19 03:51:22;;;;;;;103.53;40.07;;;;;;;;;;5056662;28;20287;-53
2022/03/19 03:53:49;;;;;;;101.60;37.30;;;;;;;;;;5056564;28;20681;-51
2022/03/19 03:56:16;;;;;;;68.83;31.00;;;;;;;;;;5056531;28;20285;-50
2022/03/19 03:58:43;;;;;;;251.37;59.57;;;;;;;;;;5056208;28;20625;-50
2022/03/19 04:01:10;;;;;;;102.83;37.30;;;;;;;;;;5056195;28;20726;-50
2022/03/19 04:03:38;;;;;;;85.00;36.13;;;;;;;;;;5056258;28;20247;-52
2022/03/19 04:06:05;;;;;;;129.63;45.27;;;;;;;;;;5056043;28;20230;-53
2022/03/19 04:08:32;;;;;;;129.13;47.67;;;;;;;;;;5056372;28;20192;-52
2022/03/19 04:10:59;;;;;;;175.93;56.70;;;;;;;;;;5055918;28;20223;-54
2022/03/19 04:13:26;;;;;;;186.87;59.10;;;;;;;;;;5056177;28;20204;-53
2022/03/19 04:15:53;;;;;;;123.00;48.93;;;;;;;;;;5055538;28;20227;-54
2022/03/19 04:18:21;;;;;;;113.20;47.70;;;;;;;;;;5055945;28;20223;-57
2022/03/19 04:20:48;;;;;;;114.47;50.73;;;;;;;;;;5055721;28;20228;-54
2022/03/19 04:23:15;;;;;;;115.83;51.43;;;;;;;;;;5055657;28;20203;-51
2022/03/19 04:25:42;;;;;;;121.20;52.13;;;;;;;;;;5055597;28;20250;-51
2022/03/19 04:28:11;;;;;;;125.80;55.00;;;;;;;;;;5055917;28;20211;-51
2022/03/19 04:30:43;;;;;;;129.70;56.07;;;;;;;;;;5055817;28;20227;-51
2022/03/19 04:33:10;;;;;;;120.67;53.30;;;;;;;;;;5055853;28;20219;-50
2022/03/19 04:38:23;;;;;;;125.33;55.37;;;;;;;;;;5055664;28;20239;-50
2022/03/19 04:40:51;;;;;;;131.10;53.30;;;;;;;;;;5037542;28;20315;-50
2022/03/19 04:43:19;;;;;;;117.63;50.47;;;;;;;;;;5055465;28;20218;-52
2022/03/19 04:45:46;;;;;;;114.00;53.07;;;;;;;;;;5055406;28;20223;-50
2022/03/19 04:48:14;;;;;;;151.43;63.87;;;;;;;;;;5055136;28;20212;-51
2022/03/19 04:50:43;;;;;;;155.60;62.77;;;;;;;;;;5055101;28;20227;-51
2022/03/19 04:53:11;;;;;;;169.37;62.43;;;;;;;;;;5055102;28;20215;-51
2022/03/19 04:55:39;;;;;;;143.33;57.13;;;;;;;;;;5055122;28;20247;-51
2022/03/19 04:58:07;;;;;;;111.90;48.50;;;;;;;;;;5055327;28;20258;-51
2022/03/19 05:00:36;;;;;;;109.07;45.70;;;;;;;;;;5054952;28;20208;-52
2022/03/19 05:03:05;;;;;;;92.77;42.00;;;;;;;;;;5066137;28;20243;-52
2022/03/19 05:05:33;;;;;;;96.37;42.30;;;;;;;;;;5068894;28;20223;-51
2022/03/19 05:08:00;;;;;;;84.30;37.83;;;;;;;;;;5055675;28;20283;-51
2022/03/19 05:13:13;;;;;;;78.23;32.60;;;;;;;;;;5055242;28;20238;-51
2022/03/19 05:15:40;;;;;;;67.17;33.37;;;;;;;;;;5054806;28;20315;-52
2022/03/19 05:18:07;;;;;;;73.80;33.37;;;;;;;;;;5054097;28;20203;-52
2022/03/19 05:20:35;;;;;;;74.33;31.17;;;;;;;;;;5054890;28;20227;-50
2022/03/19 05:23:04;;;;;;;68.40;32.57;;;;;;;;;;5055247;28;20210;-52
2022/03/19 05:25:31;;;;;;;76.17;32.87;;;;;;;;;;5057354;28;20234;-51
2022/03/19 05:27:58;;;;;;;118.17;49.37;;;;;;;;;;5067369;28;20231;-50
2022/03/19 05:30:25;;;;;;;142.73;56.13;;;;;;;;;;5068611;28;20219;-51
2022/03/19 05:32:53;;;;;;;122.97;52.87;;;;;;;;;;5073920;28;20568;-51
2022/03/19 05:35:21;;;;;;;132.83;57.33;;;;;;;;;;5073632;28;20251;-50
2022/03/19 05:37:49;;;;;;;135.90;54.80;;;;;;;;;;5073782;28;20231;-51
2022/03/19 05:40:17;;;;;;;98.80;47.67;;;;;;;;;;5073668;28;20343;-51
2022/03/19 05:42:44;;;;;;;96.70;42.70;;;;;;;;;;5073695;28;20247;-51
2022/03/19 05:45:14;;;;;;;95.70;42.30;;;;;;;;;;5071031;28;20227;-50
2022/03/19 05:47:43;;;;;;;91.00;40.73;;;;;;;;;;5073771;28;20250;-50
2022/03/19 05:50:11;;;;;;;93.63;41.40;;;;;;;;;;5068741;28;20700;-55
2022/03/19 05:52:38;;;;;;;81.70;38.03;;;;;;;;;;5071415;28;20303;-51
2022/03/19 05:55:07;;;;;;;89.13;40.67;;;;;;;;;;5074004;28;20215;-50
2022/03/19 05:57:34;;;;;;;85.27;37.60;;;;;;;;;;5074027;28;20292;-52
2022/03/19 06:00:03;;;;;;;58.00;30.27;;;;;;;;;;5075186;28;20260;-51
2022/03/19 06:02:40;;;;;;;61.33;28.27;;;;;;;;;;5072337;28;20207;-50
2022/03/19 06:05:08;;;;;;;57.27;26.43;;;;;;;;;;5073919;28;20199;-49
2022/03/19 06:07:34;;;;;;;47.27;23.40;;;;;;;;;;5074615;28;20320;-52
2022/03/19 06:10:04;;;;;;;44.53;22.23;;;;;;;;;;5066587;28;20582;-50
2022/03/19 06:12:32;;;;;;;35.73;18.60;;;;;;;;;;5073530;28;20219;-49
2022/03/19 06:15:01;;;;;;;45.07;19.27;;;;;;;;;;5073201;28;20242;-48
2022/03/19 06:17:28;;;;;;;35.20;18.03;;;;;;;;;;5073583;28;20243;-49
2022/03/19 06:19:55;;;;;;;34.87;17.70;;;;;;;;;;5066889;28;20764;-49
2022/03/19 06:22:22;;;;;;;47.57;20.70;;;;;;;;;;5071765;28;20697;-51
2022/03/19 06:24:50;;;;;;;42.00;17.93;;;;;;;;;;5071637;28;20253;-51
2022/03/19 06:27:17;;;;;;;36.03;17.60;;;;;;;;;;5072366;28;20246;-54
2022/03/19 06:29:44;;;;;;;36.13;18.03;;;;;;;;;;5071353;28;20207;-54
2022/03/19 06:32:11;;;;;;;76.97;24.63;;;;;;;;;;5069565;28;20238;-54
2022/03/19 06:34:38;;;;;;;55.07;21.37;;;;;;;;;;5071227;28;20561;-51
2022/03/19 06:37:21;;;;;;;41.63;18.30;;;;;;;;;;5071309;28;20281;-64
2022/03/19 06:39:55;;;;;;;33.13;17.60;;;;;;;;;;5074899;28;20696;-52
2022/03/19 06:42:22;;;;;;;35.87;18.17;;;;;;;;;;5075005;28;20241;-57
2022/03/19 06:44:49;;;;;;;30.87;17.47;;;;;;;;;;5075843;28;20266;-49
2022/03/19 06:47:16;;;;;;;67.23;23.10;;;;;;;;;;5075056;28;20594;-51
2022/03/19 06:49:43;;;;;;;60.10;22.87;;;;;;;;;;5075666;28;20288;-56
2022/03/19 06:52:10;;;;;;;37.50;18.43;;;;;;;;;;5075590;28;20246;-51
2022/03/19 06:54:38;;;;;;;39.87;18.70;;;;;;;;;;5075843;28;20324;-50
2022/03/19 06:57:06;;;;;;;37.60;17.90;;;;;;;;;;5076784;28;20216;-58
2022/03/19 06:59:33;;;;;;;32.93;17.23;;;;;;;;;;5076496;28;20250;-52
2022/03/19 07:02:01;;;;;;;35.13;17.40;;;;;;;;;;5077501;28;20219;-51
2022/03/19 07:04:28;;;;;;;35.77;17.37;;;;;;;;;;5076044;28;20231;-52
2022/03/19 07:06:55;;;;;;;132.27;43.73;;;;;;;;;;5076765;28;20302;-51
2022/03/19 07:09:28;;;;;;;76.13;24.40;;;;;;;;;;5074168;28;20317;-58
2022/03/19 07:11:55;;;;;;;93.90;31.57;;;;;;;;;;5074212;28;20199;-52
2022/03/19 07:14:23;;;;;;;45.30;20.70;;;;;;;;;;5073501;28;20229;-56
2022/03/19 07:16:51;;;;;;;31.67;17.97;;;;;;;;;;5070949;28;20290;-56
2022/03/19 07:19:18;;;;;;;40.53;19.23;;;;;;;;;;5054660;28;20651;-64
2022/03/19 07:21:46;;;;;;;45.53;19.37;;;;;;;;;;5073487;28;20215;-56
2022/03/19 07:24:13;;;;;;;74.47;28.30;;;;;;;;;;5070163;28;20222;-53
2022/03/19 07:26:40;;;;;;;235.37;86.63;;;;;;;;;;5074257;28;20298;-53
2022/03/19 07:29:07;;;;;;;220.37;49.67;;;;;;;;;;5074129;28;20196;-57
2022/03/19 07:31:35;;;;;;;123.57;33.03;;;;;;;;;;5074669;28;20592;-59
2022/03/19 07:34:02;;;;;;;34.47;16.37;;;;;;;;;;5074302;28;20249;-55
2022/03/19 07:36:31;;;;;;;28.60;14.93;;;;;;;;;;5074766;28;20669;-57
2022/03/19 07:38:58;;;;;;;24.30;14.47;;;;;;;;;;5075339;28;20671;-55
2022/03/19 07:42:09;;;;;;;26.20;14.43;;;;;;;;;;5074430;28;20252;-53
2022/03/19 07:44:16;;;;;;;27.73;14.63;;;;;;;;;;5063047;28;20188;-55
2022/03/19 07:46:44;;;;;;;30.50;15.07;;;;;;;;;;5075078;28;20234;-55
2022/03/19 07:49:11;;;;;;;27.70;14.80;;;;;;;;;;5074668;28;20204;-54
2022/03/19 07:51:39;;;;;;;25.57;13.20;;;;;;;;;;5075368;28;20200;-58
2022/03/19 07:54:07;;;;;;;24.23;12.97;;;;;;;;;;5075099;28;20219;-55
2022/03/19 07:56:34;;;;;;;28.30;14.63;;;;;;;;;;5075351;28;20222;-54
2022/03/19 07:59:01;;;;;;;23.87;12.27;;;;;;;;;;5075239;28;20226;-54
2022/03/19 08:01:28;;;;;;;30.90;14.50;;;;;;;;;;5072773;28;20225;-60
2022/03/19 08:04:01;;;;;;;21.70;12.93;;;;;;;;;;5075007;28;20258;-55
2022/03/19 08:06:28;;;;;;;21.67;12.33;;;;;;;;;;5074598;28;20268;-55
2022/03/19 08:08:56;;;;;;;23.20;12.97;;;;;;;;;;5073291;28;20231;-54
2022/03/19 08:11:22;;;;;;;24.17;12.23;;;;;;;;;;5074621;28;20191;-55
2022/03/19 08:13:50;;;;;;;21.40;13.13;;;;;;;;;;5067462;28;20306;-57
2022/03/19 08:16:17;;;;;;;20.27;11.53;;;;;;;;;;5073336;28;20314;-59
2022/03/19 08:18:45;;;;;;;23.07;12.47;;;;;;;;;;5069698;28;20258;-53
2022/03/19 08:21:11;;;;;;;22.97;12.67;;;;;;;;;;5073822;28;20296;-55
2022/03/19 08:23:39;;;;;;;23.23;12.37;;;;;;;;;;5072434;28;20692;-55
2022/03/19 08:26:06;;;;;;;50.57;16.80;;;;;;;;;;5074121;28;20705;-53
2022/03/19 08:28:33;;;;;;;24.77;12.60;;;;;;;;;;5073167;28;20278;-55
2022/03/19 08:31:01;;;;;;;37.77;16.17;;;;;;;;;;5074424;28;20211;-54
2022/03/19 08:33:28;;;;;;;22.37;12.57;;;;;;;;;;5074047;28;20262;-60
2022/03/19 08:35:56;;;;;;;23.70;12.57;;;;;;;;;;5073938;28;20682;-57
2022/03/19 08:41:09;;;;;;;21.67;13.00;;;;;;;;;;5074892;28;20219;-58
2022/03/19 08:43:36;;;;;;;17.17;10.17;;;;;;;;;;5073599;28;20258;-53
2022/03/19 08:46:04;;;;;;;16.97;9.87;;;;;;;;;;5074686;28;20561;-53
2022/03/19 08:48:32;;;;;;;20.97;10.23;;;;;;;;;;5074372;28;20240;-61
2022/03/19 08:51:39;;;;;;;16.70;8.83;;;;;;;;;;5074798;28;20307;-55
2022/03/19 08:53:49;;;;;;;15.70;8.57;;;;;;;;;;5074391;28;20258;-52
2022/03/19 08:56:16;;;;;;;16.50;9.10;;;;;;;;;;5073905;28;20318;-55
2022/03/19 08:58:43;;;;;;;20.87;9.17;;;;;;;;;;5071141;28;20262;-55
2022/03/19 09:01:11;;;;;;;15.00;8.30;;;;;;;;;;5070792;28;20230;-55
2022/03/19 09:03:38;;;;;;;18.30;9.40;;;;;;;;;;5072839;28;20271;-54
2022/03/19 09:06:06;;;;;;;19.10;9.67;;;;;;;;;;5073132;28;20219;-53
2022/03/19 09:08:33;;;;;;;14.37;8.30;;;;;;;;;;5074359;28;20612;-54
2022/03/19 09:11:00;;;;;;;12.03;7.53;;;;;;;;;;5071436;28;20706;-54
2022/03/19 09:13:27;;;;;;;205.70;72.60;;;;;;;;;;5069381;28;20247;-54
2022/03/19 09:15:54;;;;;;;72.77;18.97;;;;;;;;;;5070094;28;20668;-54
2022/03/19 09:18:22;;;;;;;97.37;24.77;;;;;;;;;;5073001;28;20266;-57
2022/03/19 09:20:49;;;;;;;58.40;17.07;;;;;;;;;;5073957;28;20521;-52
2022/03/19 09:23:16;;;;;;;15.23;8.27;;;;;;;;;;5073087;28;20657;-53
2022/03/19 09:25:43;;;;;;;17.33;8.57;;;;;;;;;;5071747;28;20284;-54
2022/03/19 09:28:11;;;;;;;59.93;16.27;;;;;;;;;;5071098;28;20251;-53
2022/03/19 09:30:38;;;;;;;57.17;16.50;;;;;;;;;;5071295;28;20222;-56
2022/03/19 09:33:06;;;;;;;14.07;7.17;;;;;;;;;;5070643;28;20227;-58
2022/03/19 09:35:45;;;;;;;25.07;8.87;;;;;;;;;;5070963;28;20654;-55
2022/03/19 09:38:14;;;;;;;74.00;18.70;;;;;;;;;;5073706;28;20620;-55
2022/03/19 09:40:41;;;;;;;25.03;9.47;;;;;;;;;;5071126;28;20230;-54
2022/03/19 09:43:09;;;;;;;27.43;10.53;;;;;;;;;;5073660;28;20306;-59
2022/03/19 09:45:38;;;;;;;13.43;7.33;;;;;;;;;;5072495;28;20236;-55
2022/03/19 09:48:05;;;;;;;49.27;14.80;;;;;;;;;;5073605;28;20258;-53
2022/03/19 09:50:34;;;;;;;16.17;7.90;;;;;;;;;;5055366;28;20254;-57
2022/03/19 09:53:04;;;;;;;12.27;6.53;;;;;;;;;;5090991;28;20242;-53
2022/03/19 09:55:34;;;;;;;280.23;73.47;;;;;;;;;;5077372;28;20234;-51
2022/03/19 09:58:02;;;;;;;12.50;7.33;;;;;;;;;;5072601;28;20230;-53
2022/03/19 10:00:30;;;;;;;42.67;13.67;;;;;;;;;;5073088;28;20250;-51
2022/03/19 10:02:59;;;;;;;16.00;7.70;;;;;;;;;;5073127;28;20243;-56
2022/03/19 10:08:36;;;;;;;57.80;14.67;;;;;;;;;;5073672;28;20258;-55
2022/03/19 10:11:11;;;;;;;50.13;13.80;;;;;;;;;;5072673;28;20221;-53
2022/03/19 10:13:44;;;;;;;38.77;11.30;;;;;;;;;;5073552;28;20664;-51
2022/03/19 10:16:18;;;;;;;144.27;44.90;;;;;;;;;;5075701;28;20309;-51
2022/03/19 10:18:54;;;;;;;133.77;43.00;;;;;;;;;;5076554;28;20733;-53
2022/03/19 10:21:21;;;;;;;33.93;7.40;;;;;;;;;;5073648;28;20242;-54
2022/03/19 10:23:49;;;;;;;17.40;7.30;;;;;;;;;;5073687;28;20665;-54
2022/03/19 10:26:40;;;;;;;20.43;8.60;;;;;;;;;;5072061;28;20219;-53
2022/03/19 10:29:11;;;;;;;13.20;6.80;;;;;;;;;;5074640;28;20253;-49
2022/03/19 10:31:43;;;;;;;35.40;12.53;;;;;;;;;;5073834;28;20238;-49
2022/03/19 10:34:11;;;;;;;62.73;18.37;;;;;;;;;;5075880;28;20709;-54
2022/03/19 10:36:39;;;;;;;17.83;7.30;;;;;;;;;;5072781;28;20705;-52
2022/03/19 10:39:10;;;;;;;15.67;7.33;;;;;;;;;;5076049;28;20219;-54
2022/03/19 10:41:38;;;;;;;11.27;6.10;;;;;;;;;;5072351;28;20242;-53
2022/03/19 10:44:16;;;;;;;16.43;7.73;;;;;;;;;;5075643;28;20247;-52
2022/03/19 10:46:48;;;;;;;9.53;6.30;;;;;;;;;;5073720;28;20237;-54
2022/03/19 10:49:17;;;;;;;13.73;6.67;;;;;;;;;;5075456;28;20721;-50
2022/03/19 10:51:52;;;;;;;15.70;6.93;;;;;;;;;;5076933;28;20289;-50
2022/03/19 10:54:20;;;;;;;9.03;5.87;;;;;;;;;;5077276;28;20207;-53
2022/03/19 10:56:47;;;;;;;12.90;6.67;;;;;;;;;;5077982;28;20219;-52
2022/03/19 10:59:15;;;;;;;13.57;6.97;;;;;;;;;;5077619;28;20241;-53
2022/03/19 11:01:42;;;;;;;12.50;6.97;;;;;;;;;;5077488;28;20222;-49
2022/03/19 11:04:11;;;;;;;15.03;7.03;;;;;;;;;;5077828;28;20258;-49
2022/03/19 11:06:46;;;;;;;20.63;9.57;;;;;;;;;;5077430;28;20207;-51
2022/03/19 11:09:14;;;;;;;15.07;7.63;;;;;;;;;;5077740;28;20207;-52
2022/03/19 11:11:58;;;;;;;12.07;6.50;;;;;;;;;;5059774;28;20194;-50
2022/03/19 11:14:30;;;;;;;10.45;6.40;;;;;;;;;;5077311;28;20610;-49
2022/03/19 11:17:28;;;;;;;24.20;9.33;;;;;;;;;;5077223;28;20207;-50
2022/03/19 11:19:59;;;;;;;44.47;15.27;;;;;;;;;;5060054;28;20188;-50
2022/03/19 11:22:39;;;;;;;65.67;19.63;;;;;;;;;;5076752;28;20200;-49
2022/03/19 11:25:22;;;;;;;55.57;16.10;;;;;;;;;;5056436;28;20499;-52
2022/03/19 11:27:50;;;;;;;14.27;6.90;;;;;;;;;;5074896;28;20284;-49
2022/03/19 11:30:22;;;;;;;9.90;5.87;;;;;;;;;;5055826;28;20223;-48
2022/03/19 11:33:00;;;;;;;9.63;5.93;;;;;;;;;;5075584;28;20223;-49
2022/03/19 11:35:27;;;;;;;11.30;6.23;;;;;;;;;;5074399;28;20219;-49
2022/03/19 11:38:01;;;;;;;20.43;8.27;;;;;;;;;;5075322;28;20214;-49
2022/03/19 11:40:29;;;;;;;47.17;26.33;;;;;;;;;;5075894;28;20184;-49
2022/03/19 11:43:24;;;;;;;9.35;6.35;;;;;;;;;;5075186;28;20197;-49
2022/03/19 11:45:56;;;;;;;12.13;6.47;;;;;;;;;;5075696;28;20242;-48
2022/03/19 11:48:54;;;;;;;8.93;6.03;;;;;;;;;;5074073;28;20199;-47
2022/03/19 11:51:24;;;;;;;11.55;7.97;;;;;;;;;;4982702;28;20223;-51
2022/03/19 11:53:59;;;;;;;8.60;5.90;;;;;;;;;;4976028;28;20258;-49
2022/03/19 11:56:35;;;;;;;10.10;6.38;;;;;;;;;;4979604;28;20316;-47
2022/03/19 11:59:07;;;;;;;14.98;6.65;;;;;;;;;;4986890;28;20195;-48
2022/03/19 12:01:59;;;;;;;13.30;6.30;;;;;;;;;;4985437;28;20214;-48
2022/03/19 12:04:54;;;;;;;9.98;6.20;;;;;;;;;;4985062;28;20556;-50
2022/03/19 12:07:41;;;;;;;13.63;6.20;;;;;;;;;;4978830;28;20202;-50
2022/03/19 12:10:12;;;;;;;57.28;17.08;;;;;;;;;;4974478;28;20231;-50
2022/03/19 12:12:44;;;;;;;10.48;5.93;;;;;;;;;;4974188;28;20285;-50
2022/03/19 12:15:32;;;;;;;482.35;279.95;;;;;;;;;;4979746;28;20735;-49
2022/03/19 12:18:28;;;;;;;18.20;10.23;;;;;;;;;;4983337;28;20234;-50
2022/03/19 12:21:01;;;;;;;11.85;6.45;;;;;;;;;;4983754;28;20255;-49
2022/03/19 12:23:38;;;;;;;49.57;27.47;;;;;;;;;;4984189;28;20254;-57
2022/03/19 12:26:07;;;;;;;91.35;46.72;;;;;;;;;;4975121;28;20705;-49
2022/03/19 12:28:35;;;;;;;11.45;7.05;;;;;;;;;;5019334;28;20229;-50
2022/03/19 12:31:10;;;;;;;11.27;7.50;;;;;;;;;;5033903;28;20225;-49
2022/03/19 12:33:39;;;;;;;79.95;47.80;;;;;;;;;;5035643;28;20248;-50
2022/03/19 12:36:18;;;;;;;10.07;6.60;;;;;;;;;;5035684;28;20209;-50
2022/03/19 12:38:46;;;;;;;88.72;41.78;;;;;;;;;;5035891;28;20266;-49
2022/03/19 12:41:23;;;;;;;32.95;18.85;;;;;;;;;;5036256;28;20270;-51
2022/03/19 12:43:51;;;;;;;9.40;5.47;;;;;;;;;;5036038;28;20201;-51
2022/03/19 12:46:25;;;;;;;46.75;31.23;;;;;;;;;;5035688;28;20216;-50
2022/03/19 12:49:16;;;;;;;16.55;12.57;;;;;;;;;;5036006;28;20234;-50
2022/03/19 12:51:45;;;;;;;31.02;19.00;;;;;;;;;;5035802;28;20204;-50
2022/03/19 12:54:28;;;;;;;18.95;11.80;;;;;;;;;;5035223;28;20216;-50
2022/03/19 12:57:12;;;;;;;9.25;6.32;;;;;;;;;;5033445;28;20263;-55
2022/03/19 12:59:53;;;;;;;11.38;5.65;;;;;;;;;;5031483;28;20593;-53
2022/03/19 13:02:21;;;;;;;74.85;47.53;;;;;;;;;;5055463;28;20192;-53
2022/03/19 13:04:51;;;;;;;7.88;5.30;;;;;;;;;;5054540;28;20192;-53
2022/03/19 13:07:18;;;;;;;10.13;5.50;;;;;;;;;;5053765;28;20238;-58
2022/03/19 13:09:46;;;;;;;50.47;23.85;;;;;;;;;;5053758;28;20524;-53
2022/03/19 13:12:18;;;;;;;146.97;59.60;;;;;;;;;;5046618;28;20253;-52
2022/03/19 13:14:50;;;;;;;12.07;6.85;;;;;;;;;;5054230;28;20200;-53
2022/03/19 13:17:18;;;;;;;11.75;7.38;;;;;;;;;;5055202;28;20248;-54
2022/03/19 13:19:45;;;;;;;11.80;5.53;;;;;;;;;;5055111;28;20565;-54
2022/03/19 13:22:19;;;;;;;7.93;4.93;;;;;;;;;;5054828;28;20575;-55
2022/03/19 13:24:49;;;;;;;10.98;6.63;;;;;;;;;;5055203;28;20211;-52
2022/03/19 13:27:16;;;;;;;11.05;5.65;;;;;;;;;;5053908;28;20208;-54
2022/03/19 13:29:43;;;;;;;9.82;6.03;;;;;;;;;;5035476;28;20209;-52
2022/03/19 13:32:13;;;;;;;9.43;6.22;;;;;;;;;;5034901;28;20671;-54
2022/03/19 13:34:49;;;;;;;8.93;5.60;;;;;;;;;;5035005;28;20205;-54
2022/03/19 13:37:19;;;;;;;11.13;6.32;;;;;;;;;;5034702;28;20299;-54
2022/03/19 13:39:48;;;;;;;10.55;5.40;;;;;;;;;;5046653;28;20254;-53
2022/03/19 13:42:19;;;;;;;99.03;44.80;;;;;;;;;;5052301;28;20694;-55
2022/03/19 13:44:49;;;;;;;151.35;86.90;;;;;;;;;;5050521;28;20289;-54
2022/03/19 13:47:23;;;;;;;16.83;10.27;;;;;;;;;;5052148;28;20243;-55
2022/03/19 13:49:55;;;;;;;266.83;187.25;;;;;;;;;;5053219;28;20231;-57
2022/03/19 13:52:33;;;;;;;13.38;8.05;;;;;;;;;;5053461;28;20754;-54
2022/03/19 13:55:05;;;;;;;11.90;6.28;;;;;;;;;;5052150;28;20231;-57
2022/03/19 13:57:46;;;;;;;9.73;6.10;;;;;;;;;;5053891;28;20235;-54
2022/03/19 14:00:14;;;;;;;52.90;28.33;;;;;;;;;;5053622;28;20564;-55
2022/03/19 14:03:10;;;;;;;108.72;50.15;;;;;;;;;;5055916;28;20239;-54
2022/03/19 14:05:41;;;;;;;13.55;8.40;;;;;;;;;;5059595;28;20274;-50
2022/03/19 14:08:10;;;;;;;28.30;16.63;;;;;;;;;;5072436;28;20226;-51
2022/03/19 14:10:40;;;;;;;21.05;8.77;;;;;;;;;;5073171;28;20259;-50
2022/03/19 14:13:18;;;;;;;25.00;14.93;;;;;;;;;;5073388;28;20313;-51
2022/03/19 14:15:56;;;;;;;11.45;7.38;;;;;;;;;;5072774;28;20223;-51
2022/03/19 14:18:28;;;;;;;13.38;8.23;;;;;;;;;;5071782;28;20280;-52
2022/03/19 14:20:59;;;;;;;63.78;31.23;;;;;;;;;;5070658;28;20646;-54
2022/03/19 14:23:27;;;;;;;49.05;24.85;;;;;;;;;;5073198;28;20219;-52
2022/03/19 14:25:55;;;;;;;16.48;8.55;;;;;;;;;;5076341;28;20246;-51
2022/03/19 14:28:23;;;;;;;56.10;30.25;;;;;;;;;;5093627;28;20672;-53
2022/03/19 14:30:51;;;;;;;858.20;497.05;;;;;;;;;;5093304;28;20234;-52
2022/03/19 14:33:23;;;;;;;224.13;107.90;;;;;;;;;;5093403;28;20219;-54
2022/03/19 14:35:54;;;;;;;923.55;523.08;;;;;;;;;;5092636;28;22354;-53
2022/03/19 14:38:24;;;;;;;899.65;472.52;;;;;;;;;;5092896;28;20347;-54
2022/03/19 14:40:54;;;;;;;534.92;278.95;;;;;;;;;;5086665;28;20259;-55
2022/03/19 14:43:22;;;;;;;813.30;440.98;;;;;;;;;;5072707;28;20673;-54
2022/03/19 14:45:57;;;;;;;15.23;9.55;;;;;;;;;;5072345;28;20366;-53